createdAt,value
2022-09-07T00:04:37.067Z,102111.73
2022-09-07T00:09:24.103Z,102109.45
2022-09-07T00:14:10.490Z,102108.73
2022-09-07T00:18:56.897Z,102103.96
2022-09-07T00:23:43.325Z,102100.60
2022-09-07T00:28:17.152Z,102094.79
2022-09-07T00:37:43.774Z,102093.58
2022-09-07T00:42:20.489Z,102102.47
2022-09-07T00:47:05.943Z,102096.67
2022-09-07T00:51:45.977Z,102094.42
2022-09-07T00:56:32.581Z,102090.71
2022-09-07T01:01:05.479Z,102086.80
2022-09-07T01:05:52.029Z,102089.27
2022-09-07T01:10:38.672Z,102086.96
2022-09-07T01:15:25.294Z,102089.77
2022-09-07T01:19:59.381Z,102084.65
2022-09-07T01:24:33.958Z,102080.41
2022-09-07T01:29:08.879Z,102079.17
2022-09-07T01:33:57.978Z,102079.34
2022-09-07T01:38:31.895Z,102077.21
2022-09-07T01:43:11.225Z,102079.13
2022-09-07T01:47:56.958Z,102077.54
2022-09-07T01:52:43.880Z,102070.48
2022-09-07T02:02:14.989Z,102064.80
2022-09-07T02:07:03.102Z,102060.69
2022-09-07T02:11:36.761Z,102061.69
2022-09-07T02:16:28.100Z,102059.40
2022-09-07T02:21:14.691Z,102060.47
2022-09-07T02:25:47.857Z,102056.62
2022-09-07T02:30:34.326Z,102057.99
2022-09-07T02:35:20.819Z,102060.09
2022-09-07T02:39:53.236Z,102059.58
2022-09-07T02:44:26.125Z,102062.21
2022-09-07T02:49:30.761Z,102061.34
2022-09-07T02:54:16.006Z,102063.64
2022-09-07T02:59:08.239Z,102061.17
2022-09-07T03:04:05.597Z,102056.41
2022-09-07T03:08:44.178Z,102047.75
2022-09-07T03:13:07.607Z,102046.17
2022-09-07T03:17:40.915Z,102042.05
2022-09-07T03:22:05.492Z,102041.69
2022-09-07T03:26:38.145Z,102044.48
2022-09-07T03:31:21.808Z,102040.36
2022-09-07T03:35:50.284Z,102039.95
2022-09-07T03:40:23.621Z,102043.33
2022-09-07T03:44:54.209Z,102036.24
2022-09-07T03:49:25.468Z,102035.02
2022-09-07T03:53:56.535Z,102036.77
2022-09-07T03:58:18.236Z,102041.70
2022-09-07T04:02:46.402Z,102043.48
2022-09-07T04:07:39.318Z,102047.37
2022-09-07T04:12:14.278Z,102048.92
2022-09-07T04:16:45.358Z,102052.64
2022-09-07T04:21:33.590Z,102054.80
2022-09-07T04:26:07.402Z,102057.98
2022-09-07T04:30:36.918Z,102059.98
2022-09-07T04:35:12.812Z,102055.17
2022-09-07T04:39:45.744Z,102053.58
2022-09-07T04:44:18.685Z,102051.65
2022-09-07T04:49:06.852Z,102048.68
2022-09-07T04:58:25.802Z,102046.59
2022-09-07T05:03:08.743Z,102041.49
2022-09-07T05:17:02.853Z,102046.04
2022-09-07T06:01:59.453Z,102000.39
2022-09-07T06:30:06.954Z,102000.14
2022-09-07T07:22:47.245Z,102022.50
2022-09-07T07:27:13.459Z,102021.98
2022-09-07T07:31:34.887Z,102029.04
2022-09-07T07:36:02.610Z,102028.49
2022-09-07T07:40:27.671Z,102022.21
2022-09-07T07:44:42.903Z,102017.73
2022-09-07T07:48:55.465Z,102019.74
2022-09-07T07:57:36.357Z,102017.46
2022-09-07T08:02:02.667Z,102018.63
2022-09-07T08:06:28.976Z,102014.16
2022-09-07T08:10:52.119Z,102011.22
2022-09-07T08:24:22.617Z,102017.93
2022-09-07T08:39:07.031Z,102018.85
2022-09-07T08:54:17.412Z,102022.94
2022-09-07T08:58:48.785Z,102017.44
2022-09-07T09:02:34.006Z,102018.55
2022-09-07T09:06:34.760Z,102019.98
2022-09-07T09:10:40.610Z,102010.17
2022-09-07T09:15:24.081Z,102009.09
2022-09-07T09:19:39.514Z,102005.36
2022-09-07T09:23:51.774Z,102002.22
2022-09-07T09:28:21.045Z,102001.82
2022-09-07T09:33:15.807Z,101988.62
2022-09-07T09:37:39.386Z,101991.80
2022-09-07T09:41:58.648Z,101990.95
2022-09-07T09:46:24.740Z,101987.38
2022-09-07T09:56:26.615Z,101977.54
2022-09-07T10:05:31.234Z,101971.80
2022-09-07T10:10:23.024Z,101970.29
2022-09-07T10:15:25.426Z,101962.67
2022-09-07T10:19:41.109Z,101955.06
2022-09-07T10:24:08.109Z,101948.86
2022-09-07T10:29:12.569Z,101946.63
2022-09-07T10:38:30.306Z,101941.08
2022-09-07T10:43:23.502Z,101942.58
2022-09-07T10:48:08.170Z,101938.07
2022-09-07T10:52:23.010Z,101945.71
2022-09-07T10:56:52.280Z,101945.80
2022-09-07T11:00:59.675Z,101948.75
2022-09-07T11:05:18.208Z,101945.67
2022-09-07T11:10:16.848Z,101946.29
2022-09-07T11:14:29.563Z,101949.17
2022-09-07T11:18:42.178Z,101939.05
2022-09-07T11:22:58.094Z,101941.73
2022-09-07T11:27:10.093Z,101938.80
2022-09-07T11:31:35.739Z,101935.39
2022-09-07T11:36:20.545Z,101939.11
2022-09-07T11:40:44.641Z,101933.46
2022-09-07T11:45:00.432Z,101932.55
2022-09-07T11:49:04.839Z,101934.06
2022-09-07T11:53:20.474Z,101929.13
2022-09-07T11:57:56.031Z,101927.98
2022-09-07T12:02:09.397Z,101923.48
2022-09-07T12:07:04.931Z,101922.54
2022-09-07T12:11:23.649Z,101922.65
2022-09-07T12:15:49.604Z,101918.70
2022-09-07T12:20:15.944Z,101922.23
2022-09-07T12:24:28.364Z,101920.89
2022-09-07T12:29:03.124Z,101918.95
2022-09-07T12:33:16.819Z,101923.42
2022-09-07T12:37:43.330Z,101911.91
2022-09-07T12:42:33.888Z,101916.11
2022-09-07T12:46:47.019Z,101910.16
2022-09-07T12:51:13.054Z,101907.56
2022-09-07T12:56:15.509Z,101900.45
2022-09-07T13:00:16.129Z,101889.89
2022-09-07T13:04:26.533Z,101893.52
2022-09-07T13:08:39.347Z,101890.58
2022-09-07T13:12:53.795Z,101891.33
2022-09-07T13:17:17.039Z,101886.87
2022-09-07T13:21:30.345Z,101886.26
2022-09-07T13:30:28.759Z,101878.38
2022-09-07T13:49:27.326Z,101860.04
2022-09-07T13:53:47.881Z,101860.81
2022-09-07T13:58:01.159Z,101853.33
2022-09-07T14:02:39.074Z,101850.49
2022-09-07T14:07:08.554Z,101851.73
2022-09-07T14:11:23.098Z,101851.98
2022-09-07T14:16:07.953Z,101846.59
2022-09-07T14:20:46.929Z,101846.30
2022-09-07T14:25:25.827Z,101839.59
2022-09-07T14:29:38.347Z,101834.36
2022-09-07T14:34:04.249Z,101828.89
2022-09-07T14:43:05.133Z,101830.99
2022-09-07T14:47:18.938Z,101829.98
2022-09-07T14:52:05.220Z,101829.18
2022-09-07T14:56:40.924Z,101826.91
2022-09-07T15:06:05.721Z,101813.84
2022-09-07T15:20:41.702Z,101813.94
2022-09-07T15:48:28.488Z,101797.91
2022-09-07T16:03:08.702Z,101789.98
2022-09-07T16:18:35.498Z,101787.05
2022-09-07T16:23:15.183Z,101790.73
2022-09-07T16:27:51.011Z,101787.50
2022-09-07T16:37:31.233Z,101793.84
2022-09-07T16:42:04.192Z,101792.19
2022-09-07T16:46:42.852Z,101785.58
2022-09-07T16:51:31.759Z,101781.77
2022-09-07T16:56:04.270Z,101782.88
2022-09-07T17:00:36.667Z,101778.50
2022-09-07T17:05:04.353Z,101786.53
2022-09-07T17:09:37.072Z,101789.38
2022-09-07T17:14:23.685Z,101789.77
2022-09-07T17:23:54.865Z,101791.80
2022-09-07T17:28:29.480Z,101792.90
2022-09-07T17:33:18.889Z,101796.47
2022-09-07T17:39:13.907Z,101800.19
2022-09-07T17:47:51.139Z,101802.33
2022-09-07T17:52:18.695Z,101803.05
2022-09-07T17:57:08.442Z,101801.30
2022-09-07T18:01:45.807Z,101801.33
2022-09-07T18:06:18.872Z,101800.27
2022-09-07T18:15:37.732Z,101792.51
2022-09-07T18:20:10.651Z,101790.21
2022-09-07T18:24:43.670Z,101793.95
2022-09-07T18:29:28.093Z,101793.78
2022-09-07T18:34:01.888Z,101794.52
2022-09-07T18:38:34.889Z,101795.77
2022-09-07T18:43:14.589Z,101795.42
2022-09-07T18:47:40.275Z,101792.95
2022-09-07T18:57:01.982Z,101801.07
2022-09-07T19:01:35.014Z,101796.30
2022-09-07T19:06:01.533Z,101793.65
2022-09-07T19:38:38.770Z,101788.42
2022-09-07T19:53:41.974Z,101788.50
2022-09-07T20:08:11.057Z,101790.14
2022-09-07T20:39:51.339Z,101809.11
2022-09-07T20:44:43.092Z,101817.36
2022-09-07T20:49:10.399Z,101817.60
2022-09-07T20:53:44.183Z,101810.59
2022-09-07T20:58:15.476Z,101814.16
2022-09-07T21:02:42.591Z,101820.55
2022-09-07T21:07:15.170Z,101821.98
2022-09-07T21:11:50.133Z,101819.52
2022-09-07T21:16:18.926Z,101818.45
2022-09-07T21:21:04.278Z,101809.27
2022-09-07T21:25:38.578Z,101809.45
2022-09-07T21:30:11.051Z,101811.39
2022-09-07T21:34:43.856Z,101814.92
2022-09-07T21:39:17.351Z,101815.81
2022-09-07T21:43:50.167Z,101818.98
2022-09-07T21:48:36.777Z,101819.16
2022-09-07T21:53:09.524Z,101817.75
2022-09-07T21:57:56.240Z,101820.23
2022-09-07T22:02:42.401Z,101815.84
2022-09-07T22:07:15.343Z,101811.59
2022-09-07T22:12:04.644Z,101811.96
2022-09-07T22:16:51.176Z,101810.55
2022-09-07T22:21:25.091Z,101809.66
2022-09-07T22:25:58.142Z,101805.43
2022-09-07T22:30:31.511Z,101807.38
2022-09-07T22:35:05.071Z,101798.72
2022-09-07T22:39:37.901Z,101788.83
2022-09-07T22:44:10.305Z,101782.46
2022-09-07T22:48:43.441Z,101777.35
2022-09-07T22:53:16.121Z,101778.23
2022-09-07T22:57:53.975Z,101772.40
2022-09-07T23:02:34.163Z,101778.05
2022-09-07T23:07:07.280Z,101773.27
2022-09-07T23:11:43.002Z,101771.67
2022-09-07T23:16:10.372Z,101772.02
2022-09-07T23:20:43.227Z,101771.50
2022-09-07T23:25:29.780Z,101770.64
2022-09-07T23:30:02.591Z,101772.39
2022-09-07T23:39:35.725Z,101772.05
2022-09-07T23:44:08.844Z,101774.16
2022-09-07T23:48:41.660Z,101771.87
2022-09-07T23:53:27.820Z,101773.98
2022-09-07T23:57:51.528Z,101775.04
